createdAt,value
2023-02-20T00:01:39.922Z,21
2023-02-20T00:04:16.900Z,18
2023-02-20T00:06:49.941Z,21
2023-02-20T00:09:31.102Z,18
2023-02-20T00:12:08.041Z,21
2023-02-20T00:14:40.498Z,24
2023-02-20T00:17:13.281Z,18
2023-02-20T00:19:49.939Z,20
2023-02-20T00:22:23.181Z,28
2023-02-20T00:24:56.177Z,28
2023-02-20T00:27:28.849Z,23
2023-02-20T00:30:05.713Z,22
2023-02-20T00:32:42.908Z,18
2023-02-20T00:35:23.379Z,16
2023-02-20T00:37:54.763Z,16
2023-02-20T00:40:28.990Z,18
2023-02-20T00:43:02.848Z,16
2023-02-20T00:45:39.960Z,12
2023-02-20T00:48:12.896Z,12
2023-02-20T00:50:45.601Z,8
2023-02-20T00:53:17.805Z,5
2023-02-20T00:55:51.531Z,4
2023-02-20T00:58:25.332Z,2
2023-02-20T01:00:58.110Z,5
2023-02-20T01:03:34.340Z,3
2023-02-20T01:06:12.649Z,0
2023-02-20T01:08:45.251Z,6
2023-02-20T01:11:18.343Z,8
2023-02-20T01:13:55.107Z,0
2023-02-20T01:16:32.460Z,0
2023-02-20T01:19:06.813Z,3
2023-02-20T01:21:40.049Z,4
2023-02-20T01:24:13.121Z,0
2023-02-20T01:26:45.965Z,4
2023-02-20T01:29:23.199Z,2
2023-02-20T01:31:55.503Z,4
2023-02-20T01:34:32.004Z,2
2023-02-20T01:37:05.421Z,6
2023-02-20T01:39:38.541Z,4
2023-02-20T01:42:11.177Z,4
2023-02-20T01:44:44.616Z,7
2023-02-20T01:47:17.856Z,4
2023-02-20T01:49:54.719Z,0
2023-02-20T01:52:34.740Z,0
2023-02-20T01:55:07.906Z,15
2023-02-20T01:57:46.464Z,0
2023-02-20T02:00:19.630Z,2
2023-02-20T02:02:56.698Z,2
2023-02-20T02:05:29.540Z,5
2023-02-20T02:08:07.295Z,1
2023-02-20T02:10:44.731Z,2
2023-02-20T02:13:17.650Z,8
2023-02-20T02:15:54.443Z,2
2023-02-20T02:18:28.301Z,6
2023-02-20T02:21:01.125Z,5
2023-02-20T02:23:38.515Z,4
2023-02-20T02:26:12.565Z,6
2023-02-20T02:28:45.454Z,12
2023-02-20T02:31:18.116Z,12
2023-02-20T02:33:54.853Z,8
2023-02-20T02:36:27.862Z,10
2023-02-20T02:39:01.107Z,11
2023-02-20T02:41:37.830Z,8
2023-02-20T02:44:18.986Z,4
2023-02-20T02:46:52.151Z,8
2023-02-20T02:49:28.947Z,6
2023-02-20T02:52:05.827Z,4
2023-02-20T02:54:42.847Z,2
2023-02-20T02:57:16.197Z,6
2023-02-20T02:59:49.666Z,6
2023-02-20T03:02:22.629Z,8
2023-02-20T03:04:55.453Z,5
2023-02-20T03:07:28.688Z,6
2023-02-20T03:10:01.839Z,4
2023-02-20T03:12:34.499Z,7
2023-02-20T03:15:11.329Z,0
2023-02-20T03:17:44.372Z,4
2023-02-20T03:20:17.166Z,4
2023-02-20T03:22:50.254Z,8
2023-02-20T03:25:23.226Z,7
2023-02-20T03:27:59.934Z,8
2023-02-20T03:30:33.002Z,5
2023-02-20T03:33:05.798Z,5
2023-02-20T03:35:37.115Z,11
2023-02-20T03:38:13.440Z,3
2023-02-20T03:40:46.817Z,8
2023-02-20T03:43:19.526Z,8
2023-02-20T03:45:56.282Z,4
2023-02-20T03:48:29.459Z,4
2023-02-20T03:51:03.284Z,6
2023-02-20T03:53:36.612Z,6
2023-02-20T03:56:14.474Z,2
2023-02-20T03:58:51.033Z,6
2023-02-20T04:01:24.092Z,8
2023-02-20T04:04:05.346Z,4
2023-02-20T04:06:38.391Z,4
2023-02-20T04:09:11.035Z,7
2023-02-20T04:11:46.402Z,4
2023-02-20T04:14:23.170Z,4
2023-02-20T04:16:55.473Z,7
2023-02-20T04:19:27.315Z,5
2023-02-20T04:21:59.731Z,7
2023-02-20T04:24:32.061Z,7
2023-02-20T04:27:09.193Z,4
2023-02-20T04:29:41.936Z,5
2023-02-20T04:32:15.084Z,6
2023-02-20T04:34:51.909Z,4
2023-02-20T04:37:28.982Z,4
2023-02-20T04:40:05.811Z,2
2023-02-20T04:42:39.699Z,7
2023-02-20T04:45:16.709Z,4
2023-02-20T04:47:49.957Z,6
2023-02-20T04:50:22.574Z,12
2023-02-20T04:53:00.114Z,6
2023-02-20T04:55:33.517Z,8
2023-02-20T04:58:05.402Z,10
2023-02-20T05:00:37.596Z,8
2023-02-20T05:03:10.211Z,8
2023-02-20T05:05:46.332Z,8
2023-02-20T05:08:23.037Z,6
2023-02-20T05:11:04.405Z,5
2023-02-20T05:13:42.475Z,9
2023-02-20T05:16:19.540Z,6
2023-02-20T05:18:53.470Z,8
2023-02-20T05:21:27.521Z,5
2023-02-20T05:24:06.497Z,8
2023-02-20T05:26:41.473Z,12
2023-02-20T05:29:22.463Z,7
2023-02-20T05:31:55.763Z,12
2023-02-20T05:34:32.154Z,8
2023-02-20T05:37:08.414Z,5
2023-02-20T05:39:45.187Z,14
2023-02-20T05:42:22.400Z,12
2023-02-20T05:44:55.356Z,10
2023-02-20T05:47:28.142Z,9
2023-02-20T05:50:09.350Z,16
2023-02-20T05:52:42.211Z,12
2023-02-20T05:55:19.205Z,10
2023-02-20T05:57:57.492Z,20
2023-02-20T06:00:35.107Z,12
2023-02-20T06:03:07.430Z,52
2023-02-20T06:05:45.083Z,46
2023-02-20T06:08:23.311Z,30
2023-02-20T06:10:56.322Z,25
2023-02-20T06:13:34.441Z,21
2023-02-20T06:16:11.774Z,28
2023-02-20T06:18:48.473Z,18
2023-02-20T06:21:25.531Z,14
2023-02-20T06:24:02.159Z,18
2023-02-20T06:26:39.161Z,12
2023-02-20T06:29:12.517Z,12
2023-02-20T06:31:46.265Z,14
2023-02-20T06:34:19.152Z,16
2023-02-20T06:36:52.128Z,20
2023-02-20T06:39:28.701Z,8
2023-02-20T06:42:06.961Z,16
2023-02-20T06:44:39.924Z,20
2023-02-20T06:47:16.980Z,12
2023-02-20T06:49:53.719Z,16
2023-02-20T06:52:30.156Z,16
2023-02-20T06:55:06.775Z,12
2023-02-20T06:57:38.838Z,22
2023-02-20T07:00:15.858Z,24
2023-02-20T07:02:48.556Z,32
2023-02-20T07:05:20.847Z,55
2023-02-20T07:07:54.915Z,46
2023-02-20T07:10:33.695Z,38
2023-02-20T07:13:06.624Z,22
2023-02-20T07:15:42.661Z,20
2023-02-20T07:18:15.757Z,20
2023-02-20T07:20:49.212Z,20
2023-02-20T07:23:21.723Z,24
2023-02-20T07:25:55.409Z,15
2023-02-20T07:28:36.913Z,8
2023-02-20T07:31:09.436Z,21
2023-02-20T07:33:43.438Z,20
2023-02-20T07:36:17.090Z,18
2023-02-20T07:38:58.604Z,12
2023-02-20T07:41:31.030Z,27
2023-02-20T07:44:08.241Z,14
2023-02-20T07:46:45.662Z,22
2023-02-20T07:49:18.353Z,23
2023-02-20T07:51:57.389Z,10
2023-02-20T07:54:35.226Z,13
2023-02-20T07:57:09.215Z,19
2023-02-20T07:59:42.987Z,16
2023-02-20T08:02:20.293Z,14
2023-02-20T08:04:57.123Z,16
2023-02-20T08:07:34.330Z,12
2023-02-20T08:10:07.461Z,19
2023-02-20T08:12:44.230Z,10
2023-02-20T08:15:20.808Z,12
2023-02-20T08:17:57.962Z,8
2023-02-20T08:20:34.822Z,10
2023-02-20T08:23:07.884Z,15
2023-02-20T08:25:43.922Z,20
2023-02-20T08:28:21.332Z,38
2023-02-20T08:30:59.351Z,17
2023-02-20T08:33:32.467Z,16
2023-02-20T08:36:05.262Z,15
2023-02-20T08:38:37.986Z,23
2023-02-20T08:41:19.528Z,12
2023-02-20T08:43:52.256Z,16
2023-02-20T08:46:24.873Z,18
2023-02-20T08:49:01.347Z,16
2023-02-20T08:51:38.015Z,24
2023-02-20T08:54:11.040Z,25
2023-02-20T08:56:47.744Z,14
2023-02-20T08:59:21.185Z,16
2023-02-20T09:01:53.407Z,16
2023-02-20T09:04:27.579Z,13
2023-02-20T09:07:05.279Z,12
2023-02-20T09:09:38.859Z,14
2023-02-20T09:12:16.402Z,8
2023-02-20T09:14:50.551Z,32
2023-02-20T09:17:27.381Z,14
2023-02-20T09:20:00.232Z,16
2023-02-20T09:22:36.533Z,12
2023-02-20T09:25:13.084Z,11
2023-02-20T09:27:51.090Z,11
2023-02-20T09:30:30.477Z,5
2023-02-20T09:33:07.962Z,8
2023-02-20T09:35:41.942Z,16
2023-02-20T09:38:15.610Z,16
2023-02-20T09:40:50.197Z,14
2023-02-20T09:43:28.032Z,8
2023-02-20T09:46:06.013Z,10
2023-02-20T09:48:39.268Z,10
2023-02-20T09:51:16.014Z,8
2023-02-20T09:53:49.625Z,14
2023-02-20T09:56:26.127Z,8
2023-02-20T09:59:02.866Z,8
2023-02-20T10:01:36.662Z,12
2023-02-20T10:04:11.384Z,10
2023-02-20T10:06:48.613Z,8
2023-02-20T10:09:20.916Z,9
2023-02-20T10:11:58.465Z,6
2023-02-20T10:14:36.255Z,7
2023-02-20T10:17:12.912Z,12
2023-02-20T10:19:51.091Z,5
2023-02-20T10:22:27.978Z,8
2023-02-20T10:25:01.543Z,14
2023-02-20T10:27:37.855Z,6
2023-02-20T10:30:15.771Z,10
2023-02-20T10:32:52.780Z,8
2023-02-20T10:35:27.206Z,12
2023-02-20T10:38:04.131Z,12
2023-02-20T10:40:37.589Z,8
2023-02-20T10:43:15.602Z,8
2023-02-20T10:45:51.592Z,8
2023-02-20T10:48:28.771Z,28
2023-02-20T10:51:06.663Z,8
2023-02-20T10:53:42.673Z,11
2023-02-20T10:56:15.827Z,37
2023-02-20T10:58:49.486Z,20
2023-02-20T11:01:26.704Z,25
2023-02-20T11:04:01.144Z,16
2023-02-20T11:06:38.131Z,14
2023-02-20T11:09:16.424Z,12
2023-02-20T11:11:53.722Z,4
2023-02-20T11:14:37.840Z,20
2023-02-20T11:17:03.839Z,8
2023-02-20T11:19:37.201Z,12
2023-02-20T11:22:15.090Z,8
2023-02-20T11:24:52.314Z,15
2023-02-20T11:27:24.952Z,15
2023-02-20T11:29:58.798Z,12
2023-02-20T11:32:35.585Z,6
2023-02-20T11:35:09.307Z,10
2023-02-20T11:37:53.931Z,10
2023-02-20T11:40:16.017Z,14
2023-02-20T11:42:48.397Z,12
2023-02-20T11:45:26.178Z,6
2023-02-20T11:47:57.105Z,12
2023-02-20T11:50:38.054Z,4
2023-02-20T11:53:15.058Z,6
2023-02-20T11:55:58.616Z,8
2023-02-20T11:58:25.184Z,8
2023-02-20T12:01:03.005Z,8
2023-02-20T12:03:40.128Z,6
2023-02-20T12:06:13.443Z,8
2023-02-20T12:08:50.523Z,10
2023-02-20T12:11:27.308Z,8
2023-02-20T12:14:04.399Z,6
2023-02-20T12:16:41.477Z,8
2023-02-20T12:19:14.141Z,12
2023-02-20T12:21:50.917Z,4
2023-02-20T12:24:30.095Z,7
2023-02-20T12:27:11.910Z,8
2023-02-20T12:29:45.214Z,12
2023-02-20T12:32:18.779Z,10
2023-02-20T12:34:51.746Z,11
2023-02-20T12:37:28.171Z,6
2023-02-20T12:40:01.919Z,10
2023-02-20T12:42:38.549Z,20
2023-02-20T12:45:15.279Z,18
2023-02-20T12:47:51.336Z,17
2023-02-20T12:50:22.539Z,15
2023-02-20T12:53:00.409Z,10
2023-02-20T12:55:36.751Z,11
2023-02-20T12:58:12.684Z,12
2023-02-20T13:00:50.721Z,12
2023-02-20T13:03:23.964Z,14
2023-02-20T13:06:02.032Z,8
2023-02-20T13:08:35.005Z,14
2023-02-20T13:11:09.124Z,11
2023-02-20T13:13:46.514Z,8
2023-02-20T13:16:23.894Z,6
2023-02-20T13:19:01.574Z,6
2023-02-20T13:21:38.839Z,10
2023-02-20T13:24:20.567Z,12
2023-02-20T13:26:54.032Z,14
2023-02-20T13:29:27.007Z,14
2023-02-20T13:32:00.977Z,12
2023-02-20T13:34:38.548Z,10
2023-02-20T13:37:11.761Z,14
2023-02-20T13:39:49.571Z,10
2023-02-20T13:42:23.754Z,9
2023-02-20T13:44:57.437Z,12
2023-02-20T13:47:39.378Z,4
2023-02-20T13:50:11.978Z,15
2023-02-20T13:52:49.279Z,10
2023-02-20T13:55:30.765Z,4
2023-02-20T13:58:07.109Z,10
2023-02-20T14:00:42.155Z,15
2023-02-20T14:03:17.736Z,6
2023-02-20T14:05:51.798Z,8
2023-02-20T14:08:29.023Z,8
2023-02-20T14:11:05.750Z,12
2023-02-20T14:13:47.708Z,13
2023-02-20T14:16:25.436Z,5
2023-02-20T14:18:58.931Z,10
2023-02-20T14:21:38.462Z,11
2023-02-20T14:24:09.971Z,13
2023-02-20T14:26:47.266Z,10
2023-02-20T14:29:25.687Z,13
2023-02-20T14:32:02.898Z,8
2023-02-20T14:34:36.893Z,16
2023-02-20T14:37:15.563Z,7
2023-02-20T14:39:52.395Z,6
2023-02-20T14:42:30.833Z,5
2023-02-20T14:45:08.612Z,18
2023-02-20T14:47:41.262Z,12
2023-02-20T14:50:18.815Z,6
2023-02-20T14:52:52.134Z,12
2023-02-20T14:55:30.461Z,14
2023-02-20T14:58:07.287Z,12
2023-02-20T15:00:45.331Z,12
2023-02-20T15:03:30.492Z,10
2023-02-20T15:06:01.783Z,9
2023-02-20T15:08:34.365Z,17
2023-02-20T15:11:08.651Z,19
2023-02-20T15:13:40.834Z,29
2023-02-20T15:16:18.194Z,18
2023-02-20T15:18:58.984Z,16
2023-02-20T15:21:41.624Z,12
2023-02-20T15:24:14.523Z,12
2023-02-20T15:26:47.976Z,12
2023-02-20T15:29:22.917Z,11
2023-02-20T15:32:01.931Z,8
2023-02-20T15:34:38.046Z,12
2023-02-20T15:39:48.212Z,16
2023-02-20T15:42:21.855Z,16
2023-02-20T15:44:57.995Z,17
2023-02-20T15:47:32.627Z,16
2023-02-20T15:50:10.211Z,12
2023-02-20T15:52:48.235Z,12
2023-02-20T15:55:21.890Z,23
2023-02-20T15:57:59.153Z,12
2023-02-20T16:00:36.765Z,20
2023-02-20T16:03:10.806Z,30
2023-02-20T16:05:43.993Z,21
2023-02-20T16:08:22.610Z,14
2023-02-20T16:11:03.159Z,16
2023-02-20T16:13:40.756Z,14
2023-02-20T16:16:23.813Z,28
2023-02-20T16:18:53.442Z,34
2023-02-20T16:21:28.411Z,27
2023-02-20T16:24:05.760Z,20
2023-02-20T16:26:38.125Z,23
2023-02-20T16:29:11.854Z,28
2023-02-20T16:31:50.048Z,20
2023-02-20T16:34:23.221Z,28
2023-02-20T16:37:01.094Z,28
2023-02-20T16:39:35.681Z,84
2023-02-20T16:42:15.962Z,76
2023-02-20T16:44:53.741Z,62
2023-02-20T16:47:26.007Z,63
2023-02-20T16:50:03.765Z,56
2023-02-20T16:52:36.761Z,54
2023-02-20T16:55:11.003Z,54
2023-02-20T16:57:47.857Z,56
2023-02-20T17:00:21.519Z,49
2023-02-20T17:03:02.121Z,56
2023-02-20T17:05:35.142Z,56
2023-02-20T17:08:12.032Z,51
2023-02-20T17:10:46.390Z,60
2023-02-20T17:13:19.025Z,68
2023-02-20T17:15:56.507Z,64
2023-02-20T17:18:33.965Z,64
2023-02-20T17:21:11.094Z,64
2023-02-20T17:23:45.983Z,75
2023-02-20T17:26:20.297Z,72
2023-02-20T17:28:54.775Z,68
2023-02-20T17:31:32.155Z,78
2023-02-20T17:34:05.010Z,86
2023-02-20T17:36:42.727Z,85
2023-02-20T17:39:19.630Z,80
2023-02-20T17:41:52.950Z,87
2023-02-20T17:44:26.633Z,80
2023-02-20T17:47:04.686Z,88
2023-02-20T17:49:42.628Z,80
2023-02-20T17:52:15.717Z,79
2023-02-20T17:54:50.645Z,93
2023-02-20T17:57:32.794Z,92
2023-02-20T18:00:09.629Z,97
2023-02-20T18:02:44.467Z,91
2023-02-20T18:05:20.417Z,87
2023-02-20T18:07:53.390Z,103
2023-02-20T18:10:35.752Z,98
2023-02-20T18:13:10.526Z,128
2023-02-20T18:15:43.675Z,125
2023-02-20T18:18:17.414Z,142
2023-02-20T18:20:50.359Z,138
2023-02-20T18:23:28.268Z,142
2023-02-20T18:26:01.407Z,145
2023-02-20T18:28:38.116Z,142
2023-02-20T18:31:15.257Z,151
2023-02-20T18:33:48.183Z,147
2023-02-20T18:36:27.535Z,161
2023-02-20T18:39:01.196Z,144
2023-02-20T18:41:35.764Z,152
2023-02-20T18:44:12.669Z,158
2023-02-20T18:46:51.554Z,158
2023-02-20T18:49:28.771Z,148
2023-02-20T18:52:01.357Z,140
2023-02-20T18:54:42.821Z,140
2023-02-20T18:57:15.401Z,145
2023-02-20T18:59:49.453Z,142
2023-02-20T19:02:27.577Z,139
2023-02-20T19:05:02.325Z,135
2023-02-20T19:07:40.069Z,132
2023-02-20T19:10:14.675Z,144
2023-02-20T19:12:50.272Z,145
2023-02-20T19:15:30.747Z,145
2023-02-20T19:18:04.632Z,149
2023-02-20T19:20:39.163Z,145
2023-02-20T19:23:17.373Z,156
2023-02-20T19:25:53.251Z,153
2023-02-20T19:28:30.298Z,171
2023-02-20T19:31:12.008Z,151
2023-02-20T19:33:49.263Z,152
2023-02-20T19:36:23.474Z,153
2023-02-20T19:39:00.508Z,154
2023-02-20T19:41:42.805Z,163
2023-02-20T19:44:25.653Z,162
2023-02-20T19:47:00.236Z,170
2023-02-20T19:49:38.945Z,162
2023-02-20T19:52:14.000Z,168
2023-02-20T19:54:51.782Z,164
2023-02-20T19:57:27.374Z,160
2023-02-20T20:00:03.928Z,161
2023-02-20T20:02:39.958Z,159
2023-02-20T20:05:22.004Z,147
2023-02-20T20:08:06.866Z,156
2023-02-20T20:10:44.114Z,155
2023-02-20T20:13:16.422Z,146
2023-02-20T20:15:53.263Z,163
2023-02-20T20:18:30.443Z,152
2023-02-20T20:21:05.093Z,133
2023-02-20T20:23:42.427Z,154
2023-02-20T20:26:21.922Z,163
2023-02-20T20:28:54.877Z,175
2023-02-20T20:31:40.560Z,170
2023-02-20T20:34:18.343Z,190
2023-02-20T20:36:56.557Z,185
2023-02-20T20:39:34.145Z,179
2023-02-20T20:42:14.773Z,151
2023-02-20T20:44:51.886Z,121
2023-02-20T20:47:25.905Z,125
2023-02-20T20:50:01.016Z,115
2023-02-20T20:52:43.914Z,116
2023-02-20T20:55:17.106Z,106
2023-02-20T20:57:53.574Z,107
2023-02-20T21:00:28.339Z,124
2023-02-20T21:03:07.014Z,118
2023-02-20T21:05:39.734Z,118
2023-02-20T21:08:17.395Z,109
2023-02-20T21:10:53.045Z,98
2023-02-20T21:13:26.782Z,96
2023-02-20T21:16:03.819Z,92
2023-02-20T21:18:40.428Z,92
2023-02-20T21:21:21.670Z,86
2023-02-20T21:23:54.288Z,80
2023-02-20T21:26:32.254Z,88
2023-02-20T21:29:06.894Z,87
2023-02-20T21:31:44.173Z,92
2023-02-20T21:34:23.424Z,100
2023-02-20T21:37:01.104Z,91
2023-02-20T21:39:36.938Z,96
2023-02-20T21:42:11.392Z,100
2023-02-20T21:44:44.182Z,106
2023-02-20T21:47:18.948Z,101
2023-02-20T21:49:53.861Z,106
2023-02-20T21:52:25.929Z,100
2023-02-20T21:55:02.789Z,103
2023-02-20T21:57:38.889Z,104
2023-02-20T22:00:20.703Z,98
2023-02-20T22:02:57.258Z,112
2023-02-20T22:05:34.793Z,108
2023-02-20T22:08:09.203Z,108
2023-02-20T22:10:40.736Z,109
2023-02-20T22:13:18.160Z,109
2023-02-20T22:15:51.991Z,114
2023-02-20T22:18:27.585Z,120
2023-02-20T22:21:08.881Z,120
2023-02-20T22:23:42.421Z,118
2023-02-20T22:26:22.905Z,116
2023-02-20T22:28:56.774Z,116
2023-02-20T22:31:33.151Z,113
2023-02-20T22:34:07.774Z,115
2023-02-20T22:36:43.520Z,117
2023-02-20T22:39:20.841Z,126
2023-02-20T22:42:00.123Z,120
2023-02-20T22:44:38.835Z,121
2023-02-20T22:47:15.846Z,115
2023-02-20T22:49:48.863Z,99
2023-02-20T22:52:26.536Z,123
2023-02-20T22:55:05.792Z,150
2023-02-20T22:57:40.876Z,170
2023-02-20T23:00:19.809Z,156
2023-02-20T23:02:54.071Z,152
2023-02-20T23:05:28.473Z,156
2023-02-20T23:08:10.384Z,144
2023-02-20T23:10:49.149Z,152
2023-02-20T23:13:28.132Z,172
2023-02-20T23:16:04.406Z,156
2023-02-20T23:18:37.176Z,160
2023-02-20T23:21:16.511Z,154
2023-02-20T23:23:49.035Z,133
2023-02-20T23:26:22.091Z,131
2023-02-20T23:29:02.170Z,101
2023-02-20T23:31:39.394Z,104
2023-02-20T23:34:16.399Z,97
2023-02-20T23:36:53.047Z,103
2023-02-20T23:39:25.926Z,90
2023-02-20T23:42:03.060Z,92
2023-02-20T23:44:40.152Z,96
2023-02-20T23:47:24.401Z,92
2023-02-20T23:50:06.686Z,96
2023-02-20T23:52:39.498Z,87
2023-02-20T23:55:16.321Z,84
2023-02-20T23:57:49.633Z,82
